Time;durP1;ratioP1;P1;durP2;ratioP2;P2;SDS_P1;SDS_P2;PMS_P1;PMS_P2;Temp;Humidity;BMP_temperature;BMP_pressure;BME280_temperature;BME280_humidity;BME280_pressure;Samples;Min_cycle;Max_cycle;Signal;HPM_P1;HPM_P2
2023/09/28 00:01:18;;;;;;;7.57;2.93;;;21.50;99.90;;;;;;7300968;19;20188;-79
2023/09/28 00:03:45;;;;;;;8.50;2.90;;;21.50;99.90;;;;;;7315639;19;20736;-80
2023/09/28 00:06:13;;;;;;;6.07;2.70;;;21.50;99.90;;;;;;7312068;19;20213;-81
2023/09/28 00:08:42;;;;;;;7.67;2.80;;;21.40;99.90;;;;;;7310845;19;20184;-81
2023/09/28 00:11:10;;;;;;;9.77;3.03;;;21.40;99.90;;;;;;7312785;19;20189;-81
2023/09/28 00:13:37;;;;;;;11.40;3.27;;;21.40;99.90;;;;;;7311323;19;20193;-81
2023/09/28 00:16:11;;;;;;;8.03;2.93;;;21.30;99.90;;;;;;7310963;19;20232;-80
2023/09/28 00:18:38;;;;;;;7.20;3.13;;;21.30;99.90;;;;;;7310045;19;20293;-80
2023/09/28 00:21:04;;;;;;;8.90;3.27;;;21.20;99.90;;;;;;7310152;19;20197;-80
2023/09/28 00:23:32;;;;;;;7.30;2.60;;;21.20;99.90;;;;;;7311309;19;20229;-80
2023/09/28 00:26:02;;;;;;;5.73;2.70;;;21.10;99.90;;;;;;7310151;19;20225;-81
2023/09/28 00:28:29;;;;;;;7.60;3.20;;;21.20;99.90;;;;;;7310654;19;20199;-80
2023/09/28 00:30:56;;;;;;;8.87;3.13;;;21.10;99.90;;;;;;7309359;19;20193;-80
2023/09/28 00:33:23;;;;;;;7.73;3.07;;;21.10;99.90;;;;;;7311346;19;20197;-81
2023/09/28 00:35:50;;;;;;;7.03;3.10;;;21.10;99.90;;;;;;7310554;19;20200;-79
2023/09/28 00:38:16;;;;;;;8.40;3.20;;;21.00;99.90;;;;;;7332173;19;20238;-80
2023/09/28 00:40:48;;;;;;;7.93;3.40;;;21.00;99.90;;;;;;7313526;19;22079;-80
2023/09/28 00:43:16;;;;;;;10.57;3.40;;;20.90;99.90;;;;;;7311165;19;20259;-81
2023/09/28 00:45:48;;;;;;;7.90;3.27;;;20.90;99.90;;;;;;7302637;19;20658;-79
2023/09/28 00:48:16;;;;;;;9.17;3.50;;;20.80;99.90;;;;;;7300641;19;20201;-81
2023/09/28 00:50:48;;;;;;;8.70;3.37;;;20.80;99.90;;;;;;7300767;19;20205;-80
2023/09/28 00:53:20;;;;;;;8.90;3.50;;;20.80;99.90;;;;;;7299909;19;20206;-80
2023/09/28 00:55:48;;;;;;;9.67;3.50;;;20.70;99.90;;;;;;7299942;19;20193;-79
2023/09/28 00:58:15;;;;;;;7.93;3.57;;;20.70;99.90;;;;;;7319550;19;20225;-79
2023/09/28 01:00:45;;;;;;;7.53;3.27;;;20.60;99.90;;;;;;7300900;19;20190;-79
2023/09/28 01:03:11;;;;;;;10.97;3.57;;;20.60;99.90;;;;;;7299392;19;20196;-81
2023/09/28 01:05:40;;;;;;;8.20;3.47;;;20.50;99.90;;;;;;7302847;19;20326;-80
2023/09/28 01:08:18;;;;;;;10.20;3.47;;;20.50;99.90;;;;;;7306212;19;20208;-80
2023/09/28 01:10:46;;;;;;;8.10;3.70;;;20.50;99.90;;;;;;7306326;19;20223;-80
2023/09/28 01:13:20;;;;;;;9.83;3.87;;;20.50;99.90;;;;;;7304521;19;20183;-80
2023/09/28 01:16:05;;;;;;;8.57;3.80;;;20.40;99.90;;;;;;7206764;19;2006151;-80
2023/09/28 01:18:36;;;;;;;10.93;3.97;;;20.40;99.90;;;;;;7305036;19;20203;-80
2023/09/28 01:21:02;;;;;;;7.30;3.50;;;20.40;99.90;;;;;;7299162;19;20196;-81
2023/09/28 01:23:30;;;;;;;11.80;3.90;;;20.30;99.90;;;;;;7302020;19;20199;-80
2023/09/28 01:26:06;;;;;;;8.73;4.20;;;20.30;99.90;;;;;;7298633;19;20184;-81
2023/09/28 01:28:35;;;;;;;11.73;3.90;;;20.20;99.90;;;;;;7300710;19;20229;-80
2023/09/28 01:31:02;;;;;;;8.73;3.90;;;20.20;99.90;;;;;;7304253;19;20662;-79
2023/09/28 01:33:31;;;;;;;11.13;4.27;;;20.20;99.90;;;;;;7307780;19;20200;-80
2023/09/28 01:35:58;;;;;;;9.03;4.40;;;20.20;99.90;;;;;;7310461;19;20212;-80
2023/09/28 01:38:58;;;;;;;8.10;4.20;;;20.20;99.90;;;;;;7310805;19;20195;-80
2023/09/28 01:41:28;;;;;;;12.60;4.43;;;20.20;99.90;;;;;;7210130;19;2004859;-80
2023/09/28 01:43:55;;;;;;;10.43;4.50;;;20.10;99.90;;;;;;7308584;19;20191;-80
2023/09/28 01:46:21;;;;;;;11.20;3.97;;;20.10;99.90;;;;;;7309334;19;20187;-79
2023/09/28 01:48:50;;;;;;;13.77;4.50;;;20.00;99.90;;;;;;7308930;19;20192;-79
2023/09/28 01:51:17;;;;;;;9.40;4.53;;;20.00;99.90;;;;;;7331126;19;20188;-80
2023/09/28 01:53:42;;;;;;;10.63;4.43;;;20.00;99.90;;;;;;7303711;19;20195;-80
2023/09/28 01:56:12;;;;;;;10.30;4.47;;;20.00;99.90;;;;;;7306321;19;20228;-80
2023/09/28 01:58:40;;;;;;;10.73;4.40;;;20.00;99.90;;;;;;7306472;19;20334;-80
2023/09/28 02:01:27;;;;;;;8.97;3.90;;;19.90;99.90;;;;;;7306137;19;20186;-78
2023/09/28 02:03:55;;;;;;;9.87;4.83;;;19.90;99.90;;;;;;7203392;19;2005850;-81
2023/09/28 02:06:21;;;;;;;12.07;4.57;;;19.90;99.90;;;;;;7306314;19;20202;-79
2023/09/28 02:08:47;;;;;;;10.33;4.43;;;19.90;99.90;;;;;;7325065;19;20183;-80
2023/09/28 02:11:13;;;;;;;11.17;4.70;;;19.90;99.90;;;;;;7303642;19;20183;-78
2023/09/28 02:13:41;;;;;;;11.97;4.93;;;19.80;99.90;;;;;;7302046;19;20181;-81
2023/09/28 02:16:12;;;;;;;9.23;4.87;;;19.80;99.90;;;;;;7305229;19;20199;-79
2023/09/28 02:18:42;;;;;;;10.47;4.83;;;19.80;99.90;;;;;;7304462;19;20204;-81
2023/09/28 02:21:16;;;;;;;13.37;4.97;;;19.90;99.90;;;;;;7304116;19;20217;-78
2023/09/28 02:23:46;;;;;;;11.10;5.03;;;20.00;99.90;;;;;;7308041;19;20194;-78
2023/09/28 02:26:27;;;;;;;13.83;4.80;;;20.10;99.90;;;;;;7309492;19;20232;-78
2023/09/28 02:28:57;;;;;;;11.07;4.70;;;20.20;99.90;;;;;;7208403;19;2005054;-78
2023/09/28 02:31:27;;;;;;;11.30;4.63;;;20.20;99.90;;;;;;7303993;19;20188;-79
2023/09/28 02:33:57;;;;;;;10.40;4.93;;;20.20;99.90;;;;;;7303161;19;20279;-78
2023/09/28 02:36:24;;;;;;;10.70;4.80;;;20.30;99.90;;;;;;7304021;19;20623;-79
2023/09/28 02:38:51;;;;;;;11.90;4.87;;;20.30;99.90;;;;;;7306256;19;20539;-79
2023/09/28 02:41:18;;;;;;;13.03;4.90;;;20.40;99.90;;;;;;7329341;19;20191;-80
2023/09/28 02:43:47;;;;;;;11.97;5.17;;;20.30;99.90;;;;;;7303775;19;20183;-80
2023/09/28 02:46:15;;;;;;;9.87;5.17;;;20.40;99.90;;;;;;7307036;19;20188;-79
2023/09/28 02:48:42;;;;;;;10.90;5.20;;;20.40;99.90;;;;;;7305971;19;20182;-79
2023/09/28 02:51:17;;;;;;;12.07;4.80;;;20.40;99.90;;;;;;7304792;19;20229;-78
2023/09/28 02:53:48;;;;;;;11.37;5.10;;;20.40;99.90;;;;;;7307801;19;20557;-80
2023/09/28 02:56:17;;;;;;;9.10;4.80;;;20.40;99.90;;;;;;7308081;19;20262;-79
2023/09/28 02:58:49;;;;;;;10.23;5.27;;;20.40;99.90;;;;;;7304446;19;20225;-80
2023/09/28 03:01:15;;;;;;;12.03;5.00;;;20.50;99.90;;;;;;7306947;19;20613;-77
2023/09/28 03:03:47;;;;;;;10.50;4.63;;;20.40;99.90;;;;;;7288411;19;20257;-80
2023/09/28 03:06:22;;;;;;;12.93;5.40;;;20.40;99.90;;;;;;7307515;19;20191;-79
2023/09/28 03:08:48;;;;;;;9.77;5.00;;;20.30;99.90;;;;;;7301177;19;20188;-79
2023/09/28 03:11:14;;;;;;;9.57;4.83;;;20.40;99.90;;;;;;7328181;19;20200;-79
2023/09/28 03:13:44;;;;;;;12.00;4.97;;;20.40;99.90;;;;;;7304842;19;20216;-80
2023/09/28 03:16:11;;;;;;;12.17;5.37;;;20.30;99.90;;;;;;7306221;19;20195;-80
2023/09/28 03:18:40;;;;;;;15.47;6.00;;;20.30;99.90;;;;;;7306201;19;20283;-78
2023/09/28 03:21:09;;;;;;;13.70;5.23;;;20.30;99.90;;;;;;7306076;19;20213;-79
2023/09/28 03:23:39;;;;;;;14.90;5.80;;;20.20;99.90;;;;;;7301209;19;20203;-79
2023/09/28 03:26:06;;;;;;;10.47;5.70;;;20.10;99.90;;;;;;7308536;19;20670;-78
2023/09/28 03:29:03;;;;;;;13.23;5.50;;;19.90;99.90;;;;;;7306418;19;20188;-79
2023/09/28 03:31:37;;;;;;;11.37;5.70;;;19.80;99.90;;;;;;7202668;19;2004596;-80
2023/09/28 03:34:07;;;;;;;13.60;5.83;;;19.70;99.90;;;;;;7302873;19;20216;-80
2023/09/28 03:36:35;;;;;;;14.90;5.00;;;19.60;99.90;;;;;;7303901;19;20256;-79
2023/09/28 03:39:03;;;;;;;11.67;5.63;;;19.50;99.90;;;;;;7301766;19;20192;-79
2023/09/28 03:41:29;;;;;;;14.43;6.23;;;19.50;99.90;;;;;;7298877;19;20191;-79
2023/09/28 03:44:03;;;;;;;15.37;6.17;;;19.40;99.90;;;;;;7304711;19;20215;-79
2023/09/28 03:46:35;;;;;;;13.40;5.77;;;19.40;99.90;;;;;;7305467;19;20252;-78
2023/09/28 03:49:06;;;;;;;15.67;6.43;;;19.30;99.90;;;;;;7300819;19;20190;-79
2023/09/28 03:51:38;;;;;;;16.67;5.90;;;19.30;99.90;;;;;;7303317;19;20205;-79
2023/09/28 03:54:03;;;;;;;12.67;5.50;;;19.30;99.90;;;;;;7306317;19;20190;-79
2023/09/28 03:56:32;;;;;;;14.33;5.37;;;19.30;99.90;;;;;;7305193;19;20196;-78
2023/09/28 03:58:58;;;;;;;12.63;5.63;;;19.30;99.90;;;;;;7296356;19;20210;-78
2023/09/28 04:01:32;;;;;;;13.30;4.93;;;19.40;99.90;;;;;;7305700;19;20181;-79
2023/09/28 04:03:58;;;;;;;18.43;5.10;;;19.20;99.90;;;;;;7303414;19;20180;-79
2023/09/28 04:06:28;;;;;;;15.20;5.10;;;19.10;99.90;;;;;;7303644;19;20664;-78
2023/09/28 04:08:58;;;;;;;15.30;4.90;;;19.10;99.90;;;;;;7304484;19;20678;-78
2023/09/28 04:11:27;;;;;;;16.00;4.93;;;19.10;99.90;;;;;;7304479;19;20185;-79
2023/09/28 04:13:54;;;;;;;13.30;4.43;;;19.00;99.90;;;;;;7303882;19;20227;-78
2023/09/28 04:16:21;;;;;;;16.23;4.70;;;19.00;99.90;;;;;;7305912;19;20184;-78
2023/09/28 04:18:48;;;;;;;19.33;4.30;;;18.90;99.90;;;;;;7334226;19;20212;-79
2023/09/28 04:21:20;;;;;;;13.20;3.97;;;18.90;99.90;;;;;;7310105;19;20208;-79
2023/09/28 04:23:47;;;;;;;16.40;4.33;;;18.80;99.90;;;;;;7311435;19;20880;-78
2023/09/28 04:26:14;;;;;;;15.30;3.90;;;18.80;99.90;;;;;;7312362;19;20217;-78
2023/09/28 04:28:47;;;;;;;15.83;4.13;;;18.70;99.90;;;;;;7309629;19;20578;-78
2023/09/28 04:31:14;;;;;;;15.70;3.60;;;18.60;99.90;;;;;;7311599;19;20373;-79
2023/09/28 04:33:44;;;;;;;14.43;3.93;;;18.50;99.90;;;;;;7313162;19;20734;-79
2023/09/28 04:36:18;;;;;;;13.80;3.70;;;18.50;99.90;;;;;;7313204;19;20200;-79
2023/09/28 04:38:49;;;;;;;19.27;4.43;;;18.40;99.90;;;;;;7312170;19;20229;-78
2023/09/28 04:41:17;;;;;;;16.27;3.90;;;18.40;99.90;;;;;;7309938;19;20206;-78
2023/09/28 04:43:54;;;;;;;16.27;4.23;;;18.40;99.90;;;;;;7313194;19;20190;-79
2023/09/28 04:46:23;;;;;;;21.10;4.13;;;18.40;99.90;;;;;;7291656;19;20200;-78
2023/09/28 04:48:53;;;;;;;22.17;4.17;;;18.30;99.90;;;;;;7324056;19;20195;-78
2023/09/28 04:51:19;;;;;;;15.97;4.03;;;18.30;99.90;;;;;;7298358;19;20307;-79
2023/09/28 04:53:45;;;;;;;19.10;4.50;;;18.30;99.90;;;;;;7314003;19;20185;-78
2023/09/28 04:56:12;;;;;;;19.33;4.43;;;18.30;99.90;;;;;;7294003;19;20258;-81
2023/09/28 04:58:42;;;;;;;17.90;4.87;;;18.30;99.90;;;;;;7292066;19;20235;-79
2023/09/28 05:01:08;;;;;;;21.97;5.00;;;18.10;99.90;;;;;;7293387;19;20198;-78
2023/09/28 05:03:34;;;;;;;21.33;4.43;;;18.10;99.90;;;;;;7298936;19;20267;-79
2023/09/28 05:06:01;;;;;;;18.27;4.53;;;18.00;99.90;;;;;;7289225;19;20189;-77
2023/09/28 05:08:27;;;;;;;17.67;4.20;;;17.90;99.90;;;;;;7295415;19;20197;-79
2023/09/28 05:10:54;;;;;;;21.03;4.43;;;17.90;99.90;;;;;;7301724;19;20278;-78
2023/09/28 05:13:31;;;;;;;21.13;4.10;;;17.80;99.90;;;;;;7293211;19;20188;-79
2023/09/28 05:15:57;;;;;;;21.13;4.57;;;17.80;99.90;;;;;;7289745;19;20188;-79
2023/09/28 05:18:29;;;;;;;21.77;4.27;;;17.80;99.90;;;;;;7295276;19;20207;-79
2023/09/28 05:20:56;;;;;;;21.43;5.07;;;17.80;99.90;;;;;;7292812;19;20188;-80
2023/09/28 05:23:22;;;;;;;21.47;4.33;;;17.80;99.90;;;;;;7295743;19;20198;-79
2023/09/28 05:25:48;;;;;;;20.87;4.33;;;17.70;99.90;;;;;;7319401;19;20181;-79
2023/09/28 05:28:16;;;;;;;20.90;4.33;;;17.60;99.90;;;;;;7288858;19;20177;-80
2023/09/28 05:30:48;;;;;;;22.23;4.40;;;17.60;99.90;;;;;;7287811;19;20671;-80
2023/09/28 05:33:19;;;;;;;23.17;4.33;;;17.60;99.90;;;;;;7289907;19;20190;-79
2023/09/28 05:35:50;;;;;;;19.53;3.90;;;17.60;99.90;;;;;;7281385;19;21050;-79
2023/09/28 05:38:16;;;;;;;23.17;4.07;;;17.70;99.90;;;;;;7289063;19;20709;-80
2023/09/28 05:40:42;;;;;;;25.90;4.77;;;17.60;99.90;;;;;;7287922;19;20201;-79
2023/09/28 05:43:08;;;;;;;23.37;4.53;;;17.60;99.90;;;;;;7288029;19;22404;-81
2023/09/28 05:45:33;;;;;;;23.87;4.80;;;17.60;99.90;;;;;;7288513;19;20184;-80
2023/09/28 05:48:01;;;;;;;20.80;4.57;;;17.70;99.90;;;;;;7287672;19;20197;-80
2023/09/28 05:50:29;;;;;;;27.97;4.97;;;17.60;99.90;;;;;;7287239;19;20235;-80
2023/09/28 05:52:56;;;;;;;27.70;5.53;;;17.60;99.90;;;;;;7288855;19;20604;-81
2023/09/28 05:55:25;;;;;;;32.17;5.30;;;17.50;99.90;;;;;;7287770;19;20185;-81
2023/09/28 05:57:54;;;;;;;25.50;4.50;;;17.50;99.90;;;;;;7289844;19;20854;-80
2023/09/28 06:00:23;;;;;;;26.67;4.43;;;17.60;99.90;;;;;;7291942;19;20268;-80
2023/09/28 06:02:49;;;;;;;27.43;5.30;;;17.60;99.90;;;;;;7302208;19;20879;-80
2023/09/28 06:05:17;;;;;;;28.80;4.23;;;17.70;99.90;;;;;;7305572;19;20301;-81
2023/09/28 06:07:43;;;;;;;30.30;4.80;;;17.70;99.90;;;;;;7288518;19;20189;-81
2023/09/28 06:10:13;;;;;;;24.33;4.60;;;17.80;99.90;;;;;;7288748;19;20211;-81
2023/09/28 06:12:43;;;;;;;27.83;5.07;;;18.00;99.90;;;;;;7289282;19;20227;-81
2023/09/28 06:15:10;;;;;;;23.57;4.83;;;18.00;99.90;;;;;;7287600;19;20208;-81
2023/09/28 06:17:36;;;;;;;27.60;4.93;;;18.10;99.90;;;;;;7288305;19;20217;-81
2023/09/28 06:20:05;;;;;;;26.63;4.03;;;18.30;99.90;;;;;;7287636;19;20658;-80
2023/09/28 06:22:31;;;;;;;29.00;4.60;;;18.40;99.90;;;;;;7287541;19;20197;-80
2023/09/28 06:24:59;;;;;;;22.50;4.93;;;18.40;99.90;;;;;;7288595;19;20224;-81
2023/09/28 06:27:28;;;;;;;26.47;4.33;;;18.60;99.90;;;;;;7287218;19;20196;-80
2023/09/28 06:29:54;;;;;;;24.67;3.70;;;18.90;99.90;;;;;;7286833;19;20195;-80
2023/09/28 06:32:22;;;;;;;22.47;4.00;;;19.30;99.90;;;;;;7291977;19;20195;-81
2023/09/28 06:34:49;;;;;;;26.73;4.30;;;19.70;99.90;;;;;;7304450;19;20179;-81
2023/09/28 06:37:18;;;;;;;28.80;4.40;;;20.10;99.90;;;;;;7304430;19;20259;-80
2023/09/28 06:39:49;;;;;;;26.20;4.37;;;20.50;99.90;;;;;;7287420;19;20193;-81
2023/09/28 06:42:18;;;;;;;21.90;4.10;;;20.90;99.90;;;;;;7288177;19;20199;-81
2023/09/28 06:44:47;;;;;;;32.83;4.47;;;21.20;99.90;;;;;;7288701;19;20265;-80
2023/09/28 06:47:13;;;;;;;19.80;3.63;;;21.50;99.90;;;;;;7289365;19;20238;-81
2023/09/28 06:49:41;;;;;;;24.03;3.90;;;22.10;99.90;;;;;;7286819;19;20728;-82
2023/09/28 06:52:07;;;;;;;24.17;4.20;;;22.50;99.90;;;;;;7287674;19;20613;-81
2023/09/28 06:54:33;;;;;;;22.50;4.17;;;23.00;99.90;;;;;;7288408;19;20191;-80
2023/09/28 06:57:00;;;;;;;23.50;4.23;;;23.20;99.90;;;;;;7288804;19;20207;-81
2023/09/28 06:59:27;;;;;;;28.70;5.57;;;23.50;99.90;;;;;;7287626;19;20193;-81
2023/09/28 07:01:54;;;;;;;24.13;4.40;;;23.90;99.90;;;;;;7288946;19;20201;-81
2023/09/28 07:04:20;;;;;;;21.73;4.32;;;24.10;99.90;;;;;;7291671;19;20193;-81
2023/09/28 07:06:46;;;;;;;24.55;4.43;;;24.40;99.90;;;;;;7309250;19;21048;-82
2023/09/28 07:09:12;;;;;;;22.33;4.40;;;25.00;99.90;;;;;;7288545;19;20192;-82
2023/09/28 07:11:39;;;;;;;22.65;4.32;;;25.70;99.90;;;;;;7287411;19;20196;-82
2023/09/28 07:14:04;;;;;;;22.35;4.22;;;26.70;99.90;;;;;;7287918;19;20193;-82
2023/09/28 07:16:30;;;;;;;25.05;4.53;;;27.20;99.90;;;;;;7288170;19;20643;-81
2023/09/28 07:18:57;;;;;;;21.20;4.20;;;26.80;99.90;;;;;;7287677;19;20196;-81
2023/09/28 07:21:23;;;;;;;24.17;4.72;;;25.70;99.90;;;;;;7285966;19;20192;-81
2023/09/28 07:23:49;;;;;;;22.20;4.03;;;25.10;99.90;;;;;;7299153;19;20209;-81
2023/09/28 07:26:18;;;;;;;26.20;4.63;;;24.70;99.90;;;;;;7306266;19;20651;-81
2023/09/28 07:28:45;;;;;;;26.42;4.53;;;24.40;99.90;;;;;;7286610;19;20193;-81
2023/09/28 07:31:15;;;;;;;24.67;4.22;;;24.40;99.90;;;;;;7288216;19;20188;-81
2023/09/28 07:33:48;;;;;;;25.52;4.15;;;24.30;99.90;;;;;;7290804;19;20264;-81
2023/09/28 07:36:14;;;;;;;27.00;4.40;;;24.20;99.90;;;;;;7293960;19;20283;-82
2023/09/28 07:38:40;;;;;;;29.75;4.85;;;24.20;99.90;;;;;;7290678;19;20191;-81
2023/09/28 07:41:06;;;;;;;26.35;4.18;;;24.50;99.90;;;;;;7291059;19;20204;-81
2023/09/28 07:43:32;;;;;;;28.88;5.00;;;24.50;99.90;;;;;;7292681;19;20245;-81
2023/09/28 07:46:01;;;;;;;21.80;4.30;;;24.40;99.90;;;;;;7293839;19;20189;-81
2023/09/28 07:48:27;;;;;;;23.60;4.07;;;24.20;99.90;;;;;;7286102;19;20245;-81
2023/09/28 07:50:56;;;;;;;27.48;4.88;;;24.40;99.90;;;;;;7288827;19;20196;-81
2023/09/28 07:53:22;;;;;;;21.15;3.72;;;24.90;99.90;;;;;;7294374;19;20294;-81
2023/09/28 07:55:48;;;;;;;23.17;4.32;;;26.30;99.90;;;;;;7311271;19;20260;-81
2023/09/28 07:58:15;;;;;;;23.92;4.50;;;27.40;99.90;;;;;;7295338;19;20193;-82
2023/09/28 08:00:42;;;;;;;20.88;4.10;;;28.40;99.90;;;;;;7294611;19;20193;-81
2023/09/28 08:03:07;;;;;;;21.98;4.05;;;29.40;99.90;;;;;;7292306;19;20204;-81
2023/09/28 08:05:33;;;;;;;18.17;3.78;;;29.80;99.90;;;;;;7293711;19;20542;-82
2023/09/28 08:08:00;;;;;;;20.45;3.95;;;29.50;99.90;;;;;;7293827;19;20214;-82
2023/09/28 08:10:33;;;;;;;22.48;4.72;;;29.70;99.90;;;;;;7296545;19;20204;-81
2023/09/28 08:13:02;;;;;;;26.02;4.68;;;30.20;99.90;;;;;;7295234;19;20244;-81
2023/09/28 08:15:29;;;;;;;23.40;4.32;;;30.60;99.90;;;;;;7290161;19;20197;-81
2023/09/28 08:17:58;;;;;;;20.38;4.10;;;30.60;99.90;;;;;;7271954;19;20200;-81
2023/09/28 08:20:26;;;;;;;20.63;3.95;;;30.50;99.90;;;;;;7289783;19;20217;-81
2023/09/28 08:22:54;;;;;;;21.23;4.13;;;30.20;99.90;;;;;;7289700;19;20209;-81
2023/09/28 08:25:32;;;;;;;22.73;4.35;;;30.40;99.90;;;;;;7293348;19;20548;-81
2023/09/28 08:28:01;;;;;;;22.85;4.20;;;29.50;99.90;;;;;;7289495;19;20208;-81
2023/09/28 08:30:27;;;;;;;18.60;3.75;;;29.20;99.90;;;;;;7291947;19;20213;-81
2023/09/28 08:32:56;;;;;;;25.08;4.70;;;28.30;99.90;;;;;;7289933;19;20209;-81
2023/09/28 08:35:22;;;;;;;22.98;4.43;;;27.50;99.90;;;;;;7289736;19;20189;-81
2023/09/28 08:37:48;;;;;;;20.23;3.72;;;26.70;99.90;;;;;;7315949;19;20260;-81
2023/09/28 08:40:15;;;;;;;23.33;4.55;;;26.10;99.90;;;;;;7302502;19;20245;-79
2023/09/28 08:43:00;;;;;;;19.30;3.95;;;25.80;99.90;;;;;;7305722;19;20291;-81
2023/09/28 08:45:31;;;;;;;24.13;4.13;;;25.50;99.90;;;;;;7201009;19;2004647;-81
2023/09/28 08:48:06;;;;;;;24.77;3.83;;;25.40;99.90;;;;;;7311334;19;20203;-80
2023/09/28 08:50:37;;;;;;;22.00;3.75;;;25.20;99.90;;;;;;7286790;19;20192;-79
2023/09/28 08:53:06;;;;;;;25.65;4.18;;;24.80;99.90;;;;;;7290978;19;20558;-80
2023/09/28 08:55:48;;;;;;;21.88;4.43;;;24.80;99.90;;;;;;7303787;19;20568;-80
2023/09/28 08:58:20;;;;;;;23.60;4.05;;;25.00;99.90;;;;;;7303904;19;20238;-80
2023/09/28 09:00:47;;;;;;;23.90;4.68;;;24.30;99.90;;;;;;7310798;19;20595;-80
2023/09/28 09:03:15;;;;;;;20.08;3.80;;;24.10;99.90;;;;;;7308149;19;20200;-80
2023/09/28 09:05:51;;;;;;;26.98;4.03;;;24.20;99.90;;;;;;7308366;19;20192;-81
2023/09/28 09:08:22;;;;;;;22.83;3.90;;;24.10;99.90;;;;;;7309028;19;20192;-80
2023/09/28 09:10:52;;;;;;;22.93;4.17;;;24.30;99.90;;;;;;7305780;19;20200;-80
2023/09/28 09:13:29;;;;;;;24.13;4.43;;;24.60;99.90;;;;;;7306771;19;20189;-81
2023/09/28 09:16:07;;;;;;;21.20;4.20;;;24.80;99.90;;;;;;7203193;19;2006029;-80
2023/09/28 09:18:38;;;;;;;22.20;3.55;;;24.50;99.90;;;;;;7299180;19;20569;-81
2023/09/28 09:21:03;;;;;;;25.80;3.80;;;24.40;99.90;;;;;;7309842;19;20189;-81
2023/09/28 09:23:30;;;;;;;24.23;3.80;;;24.40;99.90;;;;;;7303202;19;20273;-81
2023/09/28 09:25:56;;;;;;;25.93;4.37;;;24.60;99.90;;;;;;7299185;19;20185;-81
2023/09/28 09:28:30;;;;;;;21.45;3.83;;;24.40;99.90;;;;;;7297500;19;20189;-81
2023/09/28 09:30:56;;;;;;;23.20;3.65;;;24.30;99.90;;;;;;7297516;19;20188;-81
2023/09/28 09:33:25;;;;;;;16.42;3.45;;;24.50;99.90;;;;;;7288437;19;20252;-81
2023/09/28 09:35:51;;;;;;;27.38;4.40;;;24.50;99.90;;;;;;7290240;19;20535;-81
2023/09/28 09:38:30;;;;;;;23.63;3.33;;;24.70;99.90;;;;;;7311343;19;20218;-81
2023/09/28 09:41:01;;;;;;;24.25;3.70;;;24.60;99.90;;;;;;7186331;19;2004711;-81
2023/09/28 09:43:40;;;;;;;24.50;3.55;;;24.80;99.90;;;;;;7289978;19;20204;-82
2023/09/28 09:46:07;;;;;;;27.23;4.50;;;25.10;99.90;;;;;;7289426;19;20197;-82
2023/09/28 09:48:39;;;;;;;18.75;3.55;;;25.40;99.90;;;;;;7288408;19;20196;-81
2023/09/28 09:51:09;;;;;;;20.77;3.75;;;26.60;99.90;;;;;;7288360;19;20204;-81
2023/09/28 09:53:38;;;;;;;16.27;3.40;;;28.40;99.90;;;;;;7287015;19;20666;-81
2023/09/28 09:56:04;;;;;;;16.50;3.50;;;29.90;99.90;;;;;;7287883;19;20607;-81
2023/09/28 09:58:41;;;;;;;18.42;3.58;;;30.90;99.90;;;;;;7300625;19;20189;-81
2023/09/28 10:01:14;;;;;;;16.60;3.65;;;32.00;99.90;;;;;;7305312;19;20222;-81
2023/09/28 10:03:52;;;;;;;16.85;3.70;;;31.00;99.90;;;;;;7308961;19;20182;-80
2023/09/28 10:06:22;;;;;;;15.73;3.40;;;31.60;99.90;;;;;;7308181;19;20188;-80
2023/09/28 10:08:53;;;;;;;17.95;3.65;;;32.60;99.90;;;;;;7287747;19;20203;-80
2023/09/28 10:11:20;;;;;;;18.65;3.40;;;33.10;99.10;;;;;;7288170;19;20197;-80
2023/09/28 10:13:48;;;;;;;15.52;3.70;;;32.50;96.80;;;;;;7284837;19;20669;-80
2023/09/28 10:16:15;;;;;;;16.42;3.60;;;32.70;95.70;;;;;;7286197;19;20196;-80
2023/09/28 10:18:46;;;;;;;15.73;3.85;;;32.50;95.80;;;;;;7286113;19;20205;-80
2023/09/28 10:21:14;;;;;;;15.35;3.38;;;31.70;95.60;;;;;;7287815;19;20185;-79
2023/09/28 10:23:40;;;;;;;18.65;3.95;;;31.50;96.50;;;;;;7292706;19;20202;-80
2023/09/28 10:26:14;;;;;;;15.18;3.10;;;31.10;97.00;;;;;;7293974;19;20252;-80
2023/09/28 10:29:09;;;;;;;17.63;3.40;;;31.10;96.70;;;;;;7292902;19;20193;-80
2023/09/28 10:31:41;;;;;;;16.48;3.22;;;30.70;96.80;;;;;;7191106;19;2004692;-79
2023/09/28 10:34:09;;;;;;;15.13;3.55;;;30.90;98.50;;;;;;7293152;19;20189;-80
2023/09/28 10:36:37;;;;;;;15.48;3.55;;;30.70;96.30;;;;;;7286766;19;20185;-79
2023/09/28 10:39:16;;;;;;;17.48;3.38;;;30.10;97.50;;;;;;7285175;19;20184;-80
2023/09/28 10:41:49;;;;;;;18.33;3.70;;;29.70;98.20;;;;;;7285640;19;20666;-80
2023/09/28 10:44:17;;;;;;;17.58;3.03;;;30.60;99.40;;;;;;7286565;19;20184;-80
2023/09/28 10:46:50;;;;;;;17.17;3.20;;;31.60;97.10;;;;;;7285106;19;20180;-80
2023/09/28 10:49:23;;;;;;;17.15;3.80;;;31.60;94.30;;;;;;7287195;19;20185;-80
2023/09/28 10:51:49;;;;;;;17.73;3.65;;;30.80;95.30;;;;;;7285914;19;20552;-79
2023/09/28 10:54:15;;;;;;;14.15;3.40;;;31.00;96.40;;;;;;7285004;19;20220;-79
2023/09/28 10:56:41;;;;;;;14.77;3.30;;;30.80;95.50;;;;;;7286103;19;20178;-79
2023/09/28 10:59:09;;;;;;;16.45;3.35;;;31.30;95.30;;;;;;7286526;19;20191;-80
2023/09/28 11:01:45;;;;;;;14.15;3.20;;;31.50;93.20;;;;;;7284840;19;20201;-79
2023/09/28 11:04:12;;;;;;;16.00;3.03;;;31.50;93.60;;;;;;7286545;19;20290;-80
2023/09/28 11:06:39;;;;;;;12.50;2.88;;;31.80;93.50;;;;;;7286770;19;20188;-79
2023/09/28 11:09:09;;;;;;;13.57;2.78;;;32.10;93.90;;;;;;7285798;19;20568;-79
2023/09/28 11:11:39;;;;;;;10.07;2.72;;;32.70;92.10;;;;;;7286474;19;20189;-79
2023/09/28 11:14:05;;;;;;;18.95;3.90;;;33.20;91.70;;;;;;7285548;19;20185;-80
2023/09/28 11:16:40;;;;;;;13.55;3.63;;;33.20;90.60;;;;;;7286520;19;20198;-80
2023/09/28 11:19:08;;;;;;;12.10;3.05;;;32.30;91.30;;;;;;7286947;19;20188;-79
2023/09/28 11:21:34;;;;;;;13.13;3.35;;;32.70;90.70;;;;;;7282935;19;20197;-79
2023/09/28 11:24:00;;;;;;;15.32;3.53;;;31.60;90.70;;;;;;7286442;19;20193;-80
2023/09/28 11:26:28;;;;;;;17.42;3.65;;;31.40;91.60;;;;;;7290466;19;20192;-80
2023/09/28 11:28:56;;;;;;;16.60;3.15;;;32.00;92.50;;;;;;7291898;19;20203;-80
2023/09/28 11:31:22;;;;;;;12.35;2.83;;;32.50;91.90;;;;;;7293116;19;20223;-80
2023/09/28 11:33:49;;;;;;;13.93;2.88;;;32.20;90.70;;;;;;7313219;19;20184;-79
2023/09/28 11:36:21;;;;;;;13.77;3.10;;;31.70;91.20;;;;;;7291772;19;20192;-79
2023/09/28 11:38:47;;;;;;;11.52;3.35;;;30.40;93.10;;;;;;7293264;19;20189;-80
2023/09/28 11:41:14;;;;;;;14.90;3.40;;;30.30;93.50;;;;;;7291320;19;20237;-79
2023/09/28 11:43:47;;;;;;;17.83;3.30;;;30.90;94.60;;;;;;7291761;19;20353;-80
2023/09/28 11:46:18;;;;;;;14.00;3.05;;;31.70;93.10;;;;;;7292134;19;20195;-80
2023/09/28 11:48:44;;;;;;;16.75;3.22;;;31.50;92.70;;;;;;7291435;19;20193;-80
2023/09/28 11:51:10;;;;;;;13.02;3.28;;;31.60;92.60;;;;;;7292986;19;20692;-79
2023/09/28 11:53:42;;;;;;;14.77;3.30;;;31.40;93.00;;;;;;7290757;19;20223;-79
2023/09/28 11:56:10;;;;;;;14.23;3.40;;;31.30;92.60;;;;;;7291226;19;20201;-79
2023/09/28 11:58:36;;;;;;;16.55;3.17;;;31.30;92.90;;;;;;7290341;19;20198;-80
2023/09/28 12:01:03;;;;;;;14.95;3.70;;;31.30;92.80;;;;;;7290583;19;20193;-80
2023/09/28 12:03:29;;;;;;;12.15;3.08;;;31.80;92.20;;;;;;7291111;19;20187;-80
2023/09/28 12:05:55;;;;;;;11.50;3.95;;;32.00;92.20;;;;;;7292003;19;20616;-80
2023/09/28 12:08:21;;;;;;;13.20;3.72;;;31.60;90.80;;;;;;7298365;19;20206;-80
2023/09/28 12:10:47;;;;;;;12.35;3.65;;;30.70;91.60;;;;;;7314533;19;20189;-80
2023/09/28 12:13:13;;;;;;;13.57;4.07;;;30.50;92.90;;;;;;7290550;19;20192;-79
2023/09/28 12:15:39;;;;;;;13.40;3.75;;;30.30;93.80;;;;;;7290129;19;20197;-80
2023/09/28 12:18:05;;;;;;;11.52;3.38;;;30.50;94.80;;;;;;7290098;19;20188;-79
2023/09/28 12:20:31;;;;;;;13.70;4.03;;;30.90;93.30;;;;;;7290442;19;20350;-80
2023/09/28 12:22:56;;;;;;;14.25;4.32;;;30.50;93.00;;;;;;7290492;19;20694;-79
2023/09/28 12:25:23;;;;;;;15.40;5.05;;;30.10;93.00;;;;;;7290896;19;20201;-79
2023/09/28 12:27:50;;;;;;;13.02;3.35;;;29.70;93.60;;;;;;7311482;19;20213;-80
2023/09/28 12:30:18;;;;;;;15.13;3.58;;;29.10;94.60;;;;;;7291744;19;20187;-79
2023/09/28 12:32:45;;;;;;;15.68;3.35;;;28.80;95.00;;;;;;7289186;19;20271;-79
2023/09/28 12:35:11;;;;;;;16.00;3.60;;;28.70;96.10;;;;;;7289648;19;20185;-80
2023/09/28 12:37:38;;;;;;;14.38;3.35;;;28.70;97.30;;;;;;7288999;19;20196;-79
2023/09/28 12:40:09;;;;;;;11.98;3.03;;;28.50;97.20;;;;;;7289612;19;20189;-79
2023/09/28 12:42:35;;;;;;;9.85;2.70;;;28.70;98.00;;;;;;7289685;19;20192;-79
2023/09/28 12:45:01;;;;;;;12.70;2.75;;;28.60;95.30;;;;;;7289833;19;20185;-79
2023/09/28 12:47:27;;;;;;;13.85;3.13;;;28.10;96.60;;;;;;7289934;19;20189;-79